Time;durP1;ratioP1;P1;durP2;ratioP2;P2;SDS_P1;SDS_P2;PMS_P1;PMS_P2;Temp;Humidity;BMP_temperature;BMP_pressure;BME280_temperature;BME280_humidity;BME280_pressure;Samples;Min_cycle;Max_cycle;Signal;HPM_P1;HPM_P2
2022/05/16 00:02:01;;;;;;;;;7.25;7.25;;;;;20.11;73.27;100717.50;5050154;28;45641;-77
2022/05/16 00:04:27;;;;;;;;;7.25;7.25;;;;;20.06;73.53;100700.88;5050007;27;45654;-76
2022/05/16 00:06:52;;;;;;;;;4.00;4.00;;;;;19.99;72.63;100697.94;5063304;28;46100;-75
2022/05/16 00:09:18;;;;;;;;;4.50;4.00;;;;;19.99;72.92;100697.94;5062735;28;45557;-77
2022/05/16 00:11:43;;;;;;;;;5.00;3.75;;;;;19.95;72.80;100701.91;5062677;28;45549;-77
2022/05/16 00:14:08;;;;;;;;;5.75;5.75;;;;;19.99;72.90;100717.69;5059600;28;45389;-77
2022/05/16 00:16:34;;;;;;;;;4.00;4.00;;;;;19.97;73.50;100716.97;5065400;28;45424;-77
2022/05/16 00:18:59;;;;;;;;;3.75;3.75;;;;;19.93;73.12;100744.44;5062103;28;45560;-76
2022/05/16 00:21:25;;;;;;;;;4.75;4.75;;;;;19.89;73.75;100754.72;5061682;28;45355;-78
2022/05/16 00:23:50;;;;;;;;;4.00;4.00;;;;;19.94;71.90;100756.94;5061912;28;45808;-78
2022/05/16 00:26:16;;;;;;;;;5.75;4.75;;;;;19.93;71.25;100737.19;5063365;28;45495;-77
2022/05/16 00:28:41;;;;;;;;;2.25;2.25;;;;;20.01;71.65;100736.44;5059685;28;45447;-78
2022/05/16 00:31:07;;;;;;;;;5.25;5.25;;;;;20.03;72.89;100711.97;5066547;27;45542;-77
2022/05/16 00:33:32;;;;;;;;;4.75;3.00;;;;;20.08;72.55;100706.97;5048989;28;45410;-78
2022/05/16 00:35:58;;;;;;;;;5.00;5.00;;;;;20.06;72.48;100695.47;5063271;28;47040;-77
2022/05/16 00:38:24;;;;;;;;;5.50;5.00;;;;;19.98;73.29;100664.63;5069131;28;45711;-78
2022/05/16 00:40:50;;;;;;;;;4.75;4.25;;;;;20.04;72.66;100695.63;5061596;28;50119;-77
2022/05/16 00:43:41;;;;;;;;;29.25;27.75;;;;;20.05;72.57;100721.66;5052419;28;45695;-77
2022/05/16 00:46:06;;;;;;;;;21.50;18.25;;;;;19.97;72.66;100708.88;5047427;28;46226;-78
2022/05/16 00:48:32;;;;;;;;;22.75;22.50;;;;;20.00;73.58;100711.28;5055240;28;45581;-78
2022/05/16 00:50:58;;;;;;;;;16.50;15.50;;;;;20.04;73.62;100714.56;5057565;28;45459;-78
2022/05/16 00:53:23;;;;;;;;;8.50;7.50;;;;;20.00;73.01;100705.88;5058694;28;45545;-78
2022/05/16 00:55:49;;;;;;;;;7.75;7.00;;;;;19.96;73.14;100698.22;5058146;28;45976;-78
2022/05/16 00:58:16;;;;;;;;;5.25;5.25;;;;;20.03;73.30;100710.13;5050962;28;45477;-80
2022/05/16 01:00:43;;;;;;;;;4.75;4.75;;;;;20.03;72.36;100714.69;5055888;28;45465;-75
2022/05/16 01:06:06;;;;;;;;;4.50;4.00;;;;;19.97;72.31;100687.25;5061639;28;45553;-75
2022/05/16 01:08:34;;;;;;;;;3.50;3.00;;;;;20.00;71.71;100700.47;5062619;28;45576;-76
2022/05/16 01:11:05;;;;;;;;;2.75;2.75;;;;;20.02;72.26;100708.44;5054859;28;45532;-75
2022/05/16 01:13:31;;;;;;;;;6.00;4.25;;;;;19.99;71.03;100709.59;5057121;28;45436;-75
2022/05/16 01:15:58;;;;;;;;;6.00;6.00;;;;;19.97;71.31;100692.66;5061270;28;45443;-75
2022/05/16 01:18:25;;;;;;;;;4.25;4.25;;;;;19.99;71.34;100681.72;5058739;27;45462;-74
2022/05/16 01:21:03;;;;;;;;;6.00;5.00;;;;;19.98;71.51;100686.25;5042414;28;45905;-75
2022/05/16 01:23:57;;;;;;;;;7.00;5.00;;;;;19.97;71.21;100692.66;5059870;28;45387;-76
2022/05/16 01:26:25;;;;;;;;;6.75;5.25;;;;;19.95;71.05;100704.63;5054142;28;45546;-75
2022/05/16 01:28:52;;;;;;;;;3.75;3.75;;;;;19.89;70.98;100697.97;5058243;28;45458;-75
2022/05/16 01:31:18;;;;;;;;;3.75;3.75;;;;;19.88;71.29;100695.41;5045179;28;45444;-75
2022/05/16 01:33:43;;;;;;;;;5.75;4.00;;;;;19.87;70.68;100709.94;5064386;28;45351;-76
2022/05/16 01:36:09;;;;;;;;;4.75;4.75;;;;;19.85;71.74;100701.97;5056357;28;46276;-76
2022/05/16 01:38:35;;;;;;;;;4.50;3.25;;;;;19.79;72.26;100695.31;5063914;28;45392;-76
2022/05/16 01:41:09;;;;;;;;;3.25;3.25;;;;;19.82;71.11;100699.56;5058460;28;45730;-76
2022/05/16 01:43:41;;;;;;;;;7.00;5.00;;;;;19.80;70.78;100709.66;5048754;28;45572;-75
2022/05/16 01:46:08;;;;;;;;;3.25;3.25;;;;;19.65;70.75;100711.94;5063545;27;45475;-76
2022/05/16 01:48:34;;;;;;;;;7.50;7.00;;;;;19.77;71.74;100727.00;5066118;27;45431;-75
2022/05/16 01:51:02;;;;;;;;;5.25;5.25;;;;;19.75;71.07;100712.78;5073706;27;45426;-75
2022/05/16 01:53:29;;;;;;;;;6.00;5.00;;;;;19.68;70.58;100710.81;5063978;28;45591;-75
2022/05/16 01:55:54;;;;;;;;;4.00;4.00;;;;;19.59;70.17;100709.81;5053866;28;48199;-76
2022/05/16 01:58:21;;;;;;;;;6.00;6.00;;;;;19.61;70.78;100723.19;5064317;28;45359;-76
2022/05/16 02:00:46;;;;;;;;;5.00;5.00;;;;;19.57;70.72;100720.75;5065906;27;45509;-75
2022/05/16 02:03:12;;;;;;;;;12.00;10.75;;;;;19.48;71.02;100724.34;5066496;28;45442;-76
2022/05/16 02:05:37;;;;;;;;;9.25;6.75;;;;;19.54;71.05;100731.00;5055906;27;45850;-76
2022/05/16 02:08:04;;;;;;;;;6.75;6.75;;;;;19.41;71.02;100712.41;5046807;28;45494;-76
2022/05/16 02:10:30;;;;;;;;;8.50;7.75;;;;;19.52;71.31;100741.09;5058701;28;45493;-76
2022/05/16 02:12:59;;;;;;;;;6.00;6.00;;;;;19.49;71.44;100744.94;5057508;28;45460;-76
2022/05/16 02:15:27;;;;;;;;;5.50;5.25;;;;;19.47;71.56;100738.81;5068565;28;46509;-76
2022/05/16 02:17:53;;;;;;;;;7.25;7.25;;;;;19.41;71.57;100735.84;5050566;28;46279;-77
2022/05/16 02:20:19;;;;;;;;;8.25;5.50;;;;;19.44;71.90;100733.72;5062134;28;45497;-75
2022/05/16 02:25:31;;;;;;;;;5.25;5.00;;;;;19.46;72.03;100720.06;5066247;28;45503;-76
2022/05/16 02:27:56;;;;;;;;;6.50;5.00;;;;;19.42;71.55;100707.84;5062487;28;45753;-76
2022/05/16 02:30:22;;;;;;;;;7.00;7.00;;;;;19.47;71.98;100721.78;5058689;28;45470;-75
2022/05/16 02:32:48;;;;;;;;;9.00;8.00;;;;;19.37;71.68;100714.53;5057593;28;45438;-75
2022/05/16 02:35:15;;;;;;;;;7.25;7.00;;;;;19.36;71.87;100722.75;5038288;28;46284;-75
2022/05/16 02:37:40;;;;;;;;;7.75;7.75;;;;;19.33;72.48;100723.91;5059220;28;48623;-75
2022/05/16 02:40:07;;;;;;;;;9.25;7.25;;;;;19.30;71.89;100717.94;5060782;28;45349;-76
2022/05/16 02:42:32;;;;;;;;;7.00;7.00;;;;;19.32;71.89;100724.06;5056981;28;45422;-77
2022/05/16 02:44:58;;;;;;;;;8.25;7.00;;;;;19.34;72.54;100714.81;5063888;28;45368;-76
2022/05/16 02:47:24;;;;;;;;;9.00;7.50;;;;;19.34;72.41;100719.38;5050997;28;45370;-76
2022/05/16 02:49:51;;;;;;;;;8.50;8.00;;;;;19.30;72.42;100726.91;5053470;28;45413;-78
2022/05/16 02:52:17;;;;;;;;;6.25;6.25;;;;;19.34;72.16;100716.69;5057641;28;45462;-78
2022/05/16 02:54:42;;;;;;;;;8.75;8.00;;;;;19.34;72.28;100720.22;5061168;28;46193;-78
2022/05/16 02:57:08;;;;;;;;;7.25;6.50;;;;;19.36;72.42;100729.03;5056414;28;45411;-78
2022/05/16 02:59:35;;;;;;;;;10.00;8.75;;;;;19.39;71.85;100736.00;5052974;28;45713;-77
2022/05/16 03:02:02;;;;;;;;;7.00;7.00;;;;;19.41;72.06;100730.44;5067547;28;45306;-76
2022/05/16 03:04:28;;;;;;;;;8.25;7.00;;;;;19.40;71.82;100734.97;5050373;28;46395;-78
2022/05/16 03:06:54;;;;;;;;;5.25;5.25;;;;;19.32;71.82;100724.06;5071048;28;45328;-77
2022/05/16 03:09:21;;;;;;;;;10.00;8.50;;;;;19.42;71.96;100748.34;5057447;28;45360;-78
2022/05/16 03:11:47;;;;;;;;;6.00;6.00;;;;;19.44;71.67;100736.41;5059766;28;45516;-78
2022/05/16 03:14:12;;;;;;;;;6.75;6.50;;;;;19.45;71.85;100734.56;5059554;28;45481;-78
2022/05/16 03:16:38;;;;;;;;;12.25;9.50;;;;;19.49;71.85;100726.03;5059592;28;45439;-78
2022/05/16 03:19:04;;;;;;;;;13.00;9.25;;;;;19.54;71.83;100734.53;5057234;28;45444;-78
2022/05/16 03:21:30;;;;;;;;;7.50;7.50;;;;;19.58;71.92;100735.13;5070565;27;45364;-77
2022/05/16 03:23:56;;;;;;;;;14.00;10.25;;;;;19.52;71.32;100738.38;5069551;28;45932;-77
2022/05/16 03:26:22;;;;;;;;;8.00;8.00;;;;;19.49;71.87;100734.13;5067691;28;45333;-77
2022/05/16 03:28:47;;;;;;;;;8.50;7.50;;;;;19.59;71.75;100751.16;5052644;28;45486;-77
2022/05/16 03:31:13;;;;;;;;;9.50;9.50;;;;;19.62;72.00;100750.03;5068851;28;45395;-77
2022/05/16 03:33:38;;;;;;;;;11.50;11.00;;;;;19.63;71.43;100751.75;5071460;28;46104;-77
2022/05/16 03:36:04;;;;;;;;;10.50;10.50;;;;;19.71;71.52;100757.28;5074465;28;45246;-77
2022/05/16 03:41:14;;;;;;;;;10.50;10.50;;;;;19.69;71.23;100761.13;5072504;27;45442;-77
2022/05/16 03:43:40;;;;;;;;;12.00;11.25;;;;;19.71;71.08;100776.19;5072086;28;46041;-77
2022/05/16 03:46:07;;;;;;;;;10.00;9.25;;;;;19.71;71.20;100775.34;5070887;28;45649;-77
2022/05/16 03:48:33;;;;;;;;;11.00;10.25;;;;;19.71;71.39;100770.78;5053439;28;45599;-77
2022/05/16 03:51:00;;;;;;;;;12.75;12.00;;;;;19.69;71.45;100770.09;5074295;28;45732;-77
2022/05/16 03:53:26;;;;;;;;;12.00;11.00;;;;;19.73;71.45;100784.16;5071024;28;45348;-77
2022/05/16 03:55:51;;;;;;;;;11.75;9.75;;;;;19.69;71.42;100783.59;5071563;28;45343;-77
2022/05/16 03:58:16;;;;;;;;;8.75;8.75;;;;;19.64;71.40;100776.91;5072384;28;45461;-77
2022/05/16 04:00:42;;;;;;;;;13.75;12.75;;;;;19.64;71.56;100787.69;5071968;28;45308;-77
2022/05/16 04:03:08;;;;;;;;;9.50;9.50;;;;;19.62;71.46;100790.53;5077132;27;46541;-77
2022/05/16 04:05:34;;;;;;;;;11.25;11.25;;;;;19.62;71.77;100789.69;5074928;28;45414;-77
2022/05/16 04:08:00;;;;;;;;;14.75;13.25;;;;;19.55;71.73;100790.28;5074867;28;45541;-77
2022/05/16 04:10:25;;;;;;;;;14.00;12.25;;;;;19.55;71.61;100792.09;5074728;28;48123;-77
2022/05/16 04:12:51;;;;;;;;;13.00;12.50;;;;;19.58;71.85;100794.53;5075367;27;45914;-78
2022/05/16 04:15:16;;;;;;;;;10.75;10.75;;;;;19.55;71.58;100792.09;5077934;27;45549;-77
2022/05/16 04:17:42;;;;;;;;;12.25;12.25;;;;;19.62;71.99;100790.53;5074956;28;45485;-76
2022/05/16 04:20:10;;;;;;;;;12.75;11.50;;;;;19.67;71.65;100792.81;5075153;27;45370;-76
2022/05/16 04:22:35;;;;;;;;;13.25;11.75;;;;;19.67;71.36;100800.91;5074648;28;46305;-75
2022/05/16 04:25:01;;;;;;;;;14.25;11.50;;;;;19.69;71.60;100809.75;5073159;28;45438;-76
2022/05/16 04:27:26;;;;;;;;;12.75;12.25;;;;;19.72;71.84;100825.66;5075805;27;45288;-75
2022/05/16 04:29:52;;;;;;;;;14.75;13.00;;;;;19.70;71.43;100823.13;5076410;27;45263;-75
2022/05/16 04:32:17;;;;;;;;;11.50;11.00;;;;;19.63;71.66;100824.66;5056794;28;47041;-76
2022/05/16 04:34:42;;;;;;;;;14.75;14.75;;;;;19.59;71.51;100845.69;5074494;28;45273;-75
2022/05/16 04:37:08;;;;;;;;;13.75;12.75;;;;;19.65;71.47;100846.97;5074012;27;45458;-75
2022/05/16 04:39:33;;;;;;;;;14.00;11.50;;;;;19.55;71.51;100835.31;5074847;28;45262;-74
2022/05/16 04:44:42;;;;;;;;;18.75;16.00;;;;;19.56;71.53;100856.78;5075491;27;45390;-75
2022/05/16 04:47:09;;;;;;;;;15.75;15.75;;;;;19.58;71.27;100867.44;5075338;27;45438;-75
2022/05/16 04:49:35;;;;;;;;;18.75;15.00;;;;;19.58;71.96;100868.31;5074058;27;45520;-75
2022/05/16 04:52:01;;;;;;;;;16.50;15.00;;;;;19.49;71.38;100866.44;5075050;27;46516;-75
2022/05/16 04:54:27;;;;;;;;;14.25;14.00;;;;;19.56;71.72;100891.03;5075249;27;45340;-76
2022/05/16 04:56:53;;;;;;;;;17.25;14.25;;;;;19.51;71.87;100891.47;5076237;27;46163;-76
2022/05/16 04:59:20;;;;;;;;;16.75;16.75;;;;;19.49;71.79;100900.69;5081694;27;45454;-76
2022/05/16 05:01:48;;;;;;;;;17.75;14.75;;;;;19.44;71.97;100905.66;5081329;27;46320;-77
2022/05/16 05:04:15;;;;;;;;;19.75;18.25;;;;;19.54;72.04;100923.56;5075217;27;45608;-76
2022/05/16 05:06:40;;;;;;;;;18.25;15.75;;;;;19.55;72.03;100936.09;5074166;27;45821;-76
2022/05/16 05:09:06;;;;;;;;;13.75;13.75;;;;;19.55;71.88;100940.63;5054647;28;45552;-76
2022/05/16 05:14:34;;;;;;;;;21.00;17.25;;;;;19.53;71.98;100943.50;5071138;27;45423;-76
2022/05/16 05:17:04;;;;;;;;;13.25;13.25;;;;;19.52;71.70;100939.06;5073649;27;45530;-76
2022/05/16 05:19:29;;;;;;;;;22.25;18.50;;;;;19.50;71.98;100937.50;5073462;28;45509;-75
2022/05/16 05:21:54;;;;;;;;;21.25;19.50;;;;;19.48;71.63;100929.56;5073741;27;45530;-75
2022/05/16 05:24:20;;;;;;;;;22.75;17.50;;;;;19.48;71.09;100939.47;5075215;28;45371;-75
2022/05/16 05:26:47;;;;;;;;;21.00;18.00;;;;;19.43;71.11;100929.09;5054433;28;45379;-75
2022/05/16 05:29:13;;;;;;;;;19.25;19.25;;;;;19.46;71.56;100926.13;5070402;28;45557;-74
2022/05/16 05:31:41;;;;;;;;;24.00;17.50;;;;;19.54;71.47;100939.78;5073751;28;45458;-74
2022/05/16 05:34:08;;;;;;;;;20.50;16.00;;;;;19.60;71.27;100949.16;5073718;27;45344;-74
2022/05/16 05:36:34;;;;;;;;;15.00;15.00;;;;;19.67;71.10;100963.81;5073874;27;45356;-74
2022/05/16 05:39:01;;;;;;;;;22.75;19.00;;;;;19.61;70.52;100975.19;5076381;27;45332;-75
2022/05/16 05:41:27;;;;;;;;;16.75;15.75;;;;;19.65;71.20;100976.63;5073590;27;46195;-76
2022/05/16 05:43:53;;;;;;;;;22.25;19.00;;;;;19.69;70.81;100983.47;5072327;28;45423;-76
2022/05/16 05:46:18;;;;;;;;;17.00;16.50;;;;;19.71;70.53;100991.44;5073939;28;45422;-76
2022/05/16 05:48:45;;;;;;;;;22.50;17.25;;;;;19.67;70.69;100990.81;5056279;28;45376;-76
2022/05/16 05:51:11;;;;;;;;;18.75;18.00;;;;;19.77;70.31;101007.97;5075330;27;46655;-76
2022/05/16 05:53:37;;;;;;;;;18.50;17.50;;;;;19.75;69.93;101011.81;5055506;28;45949;-76
2022/05/16 05:56:05;;;;;;;;;22.50;17.75;;;;;19.76;70.24;101003.53;5073783;27;45554;-76
2022/05/16 05:58:32;;;;;;;;;13.75;12.00;;;;;19.76;69.71;101010.78;5067658;27;45332;-76
2022/05/16 06:00:57;;;;;;;;;21.00;16.50;;;;;19.73;69.66;101008.38;5073481;27;45340;-76
2022/05/16 06:03:23;;;;;;;;;16.75;16.75;;;;;19.76;69.73;101011.63;5074751;27;45351;-76
2022/05/16 06:05:49;;;;;;;;;24.00;19.75;;;;;19.82;69.72;101014.78;5074245;27;45292;-76
2022/05/16 06:08:14;;;;;;;;;34.75;30.50;;;;;19.78;68.97;101014.22;5073402;28;45473;-77
2022/05/16 06:10:40;;;;;;;;;19.00;19.00;;;;;19.86;69.21;101027.88;5070481;27;45550;-80
2022/05/16 06:13:05;;;;;;;;;18.75;18.50;;;;;19.85;69.10;101018.06;5073471;27;45492;-79
2022/05/16 06:15:30;;;;;;;;;20.00;18.00;;;;;19.81;68.63;101015.78;5074545;27;45397;-80
2022/05/16 06:17:56;;;;;;;;;17.00;15.50;;;;;19.79;68.56;101024.91;5074732;28;45545;-80
2022/05/16 06:20:23;;;;;;;;;18.25;16.00;;;;;19.82;68.33;101029.16;5072503;27;47068;-80
2022/05/16 06:22:49;;;;;;;;;22.00;19.25;;;;;19.75;68.26;101042.38;5072971;27;45385;-79
2022/05/16 06:25:31;;;;;;;;;19.00;16.75;;;;;19.74;67.54;101040.63;5070671;27;45527;-78
2022/05/16 06:28:08;;;;;;;;;16.75;16.00;;;;;19.69;67.85;101028.56;5070747;27;45507;-78
2022/05/16 06:30:35;;;;;;;;;14.75;14.75;;;;;19.75;67.90;101038.81;5053570;28;48276;-78
2022/05/16 06:33:01;;;;;;;;;20.00;16.00;;;;;19.72;67.68;101047.16;5073322;28;45307;-78
2022/05/16 06:35:26;;;;;;;;;14.50;13.75;;;;;19.64;67.34;101044.28;5072636;28;45438;-78
2022/05/16 06:37:52;;;;;;;;;18.75;18.50;;;;;19.68;67.53;101057.41;5054045;28;45573;-78
2022/05/16 06:40:20;;;;;;;;;17.75;17.75;;;;;19.77;68.24;101063.81;5072791;28;45371;-78
2022/05/16 06:42:45;;;;;;;;;20.75;19.25;;;;;19.72;68.41;101053.47;5055889;28;45629;-78
2022/05/16 06:45:12;;;;;;;;;17.50;17.50;;;;;19.75;68.67;101074.78;5052996;28;45366;-78
2022/05/16 06:47:37;;;;;;;;;22.00;19.00;;;;;19.79;68.27;101081.63;5070632;28;45577;-77
2022/05/16 06:50:04;;;;;;;;;16.00;15.00;;;;;19.76;67.48;101081.03;5072332;27;45562;-78
2022/05/16 06:52:29;;;;;;;;;16.25;16.25;;;;;19.74;68.15;101083.00;5072356;27;45367;-77
2022/05/16 06:54:55;;;;;;;;;17.00;17.00;;;;;19.69;67.42;101088.81;5072774;28;45423;-80
2022/05/16 06:57:20;;;;;;;;;17.25;15.75;;;;;19.73;67.23;101097.53;5074008;28;45523;-78
2022/05/16 06:59:45;;;;;;;;;15.25;14.75;;;;;19.72;66.18;101093.09;5072972;27;46144;-78
2022/05/16 07:02:11;;;;;;;;;16.50;16.50;;;;;19.73;67.00;101097.53;5072562;27;45235;-77
2022/05/16 07:04:39;;;;;;;;;13.50;13.50;;;;;19.84;66.54;101112.75;5067013;28;45434;-77
2022/05/16 07:07:05;;;;;;;;;18.25;13.75;;;;;19.85;66.37;101119.91;5053707;28;45721;-77
2022/05/16 07:09:31;;;;;;;;;18.25;14.75;;;;;19.91;66.18;101124.72;5072850;28;46337;-78
2022/05/16 07:11:56;;;;;;;;;14.50;13.50;;;;;19.90;65.27;101134.69;5072033;28;45319;-78
2022/05/16 07:14:22;;;;;;;;;15.50;14.50;;;;;19.79;65.99;101129.38;5072263;28;45402;-78
2022/05/16 07:16:47;;;;;;;;;17.25;16.25;;;;;19.90;66.03;101139.25;5072455;28;45775;-78
2022/05/16 07:19:12;;;;;;;;;18.00;13.25;;;;;19.92;64.53;101148.94;5072179;28;45530;-78
2022/05/16 07:21:38;;;;;;;;;11.75;11.75;;;;;19.89;64.01;101146.50;5072615;28;45388;-78
2022/05/16 07:24:04;;;;;;;;;13.25;13.25;;;;;19.89;64.58;101151.91;5074462;27;45537;-78
2022/05/16 07:29:13;;;;;;;;;17.50;14.00;;;;;19.91;64.81;101147.19;5069529;28;45388;-78
2022/05/16 07:31:39;;;;;;;;;15.25;15.25;;;;;19.97;65.00;101160.19;5071961;28;45563;-78
2022/05/16 07:34:04;;;;;;;;;12.00;12.00;;;;;19.99;64.06;101160.91;5072257;28;45411;-79
2022/05/16 07:36:29;;;;;;;;;13.00;12.00;;;;;19.97;63.95;101151.22;5072805;28;45623;-79
2022/05/16 07:38:55;;;;;;;;;15.00;13.25;;;;;20.05;63.54;101155.94;5077203;28;46359;-79
2022/05/16 07:41:20;;;;;;;;;10.75;10.50;;;;;20.08;63.45;101178.13;5056384;28;46251;-79
2022/05/16 07:43:45;;;;;;;;;12.25;10.00;;;;;20.15;63.87;101171.16;5075272;27;45447;-78
2022/05/16 07:46:11;;;;;;;;;17.25;12.00;;;;;20.09;62.43;101174.44;5075408;28;45427;-77
2022/05/16 07:48:36;;;;;;;;;10.75;9.75;;;;;20.13;62.20;101173.19;5075199;28;46218;-79
2022/05/16 07:51:02;;;;;;;;;7.75;7.75;;;;;20.18;61.50;101167.38;5076885;28;45392;-79
2022/05/16 07:53:27;;;;;;;;;9.50;8.00;;;;;20.25;60.92;101171.19;5075257;27;45475;-79
2022/05/16 07:55:55;;;;;;;;;9.25;9.00;;;;;20.31;61.55;101186.88;5075549;28;45284;-78
2022/05/16 07:58:21;;;;;;;;;11.75;9.50;;;;;20.33;61.87;101184.91;5074811;28;45499;-79
2022/05/16 08:00:50;;;;;;;;;10.00;9.25;;;;;20.37;61.43;101183.63;5058221;28;45480;-79
2022/05/16 08:03:17;;;;;;;;;8.75;8.75;;;;;20.38;59.21;101179.94;5077016;28;45439;-79
2022/05/16 08:05:43;;;;;;;;;6.50;5.00;;;;;20.41;59.28;101184.19;5074974;28;45369;-79
2022/05/16 08:10:53;;;;;;;;;4.75;4.50;;;;;20.52;58.34;101194.06;5074339;27;45765;-79
2022/05/16 08:13:19;;;;;;;;;7.00;7.00;;;;;20.55;58.90;101199.19;5074471;28;45351;-77
2022/05/16 08:15:44;;;;;;;;;9.00;8.00;;;;;20.54;59.01;101192.03;5075185;28;45239;-77
2022/05/16 08:18:12;;;;;;;;;12.00;9.00;;;;;20.61;58.54;101201.34;5056280;27;46930;-77
2022/05/16 08:20:42;;;;;;;;;10.50;10.00;;;;;20.62;58.86;101208.47;5074506;27;45368;-78
2022/05/16 08:23:08;;;;;;;;;11.25;9.00;;;;;20.62;59.62;101208.47;5075035;27;45292;-78
2022/05/16 08:25:33;;;;;;;;;11.25;11.25;;;;;20.67;59.82;101213.47;5075248;28;45502;-78
2022/05/16 08:27:59;;;;;;;;;13.75;12.00;;;;;20.54;59.21;101195.63;5074823;28;46433;-77
2022/05/16 08:30:25;;;;;;;;;11.50;9.25;;;;;20.64;59.65;101199.22;5057451;28;45656;-78
2022/05/16 08:32:51;;;;;;;;;8.25;7.00;;;;;20.72;58.56;101213.91;5076252;27;45441;-78
2022/05/16 08:35:18;;;;;;;;;12.50;11.25;;;;;20.75;58.39;101216.31;5074670;27;45516;-77
2022/05/16 08:40:47;;;;;;;;;7.25;6.00;;;;;20.78;57.07;101226.84;5074890;28;45489;-77
2022/05/16 08:43:35;;;;;;;;;8.75;6.75;;;;;20.77;57.50;101215.19;5074457;28;45398;-77
2022/05/16 08:46:26;;;;;;;;;7.25;7.25;;;;;20.76;57.89;101210.78;5074834;27;45564;-78
2022/05/16 08:49:06;;;;;;;;;10.00;9.00;;;;;20.92;56.47;101231.84;5073201;27;45381;-77
2022/05/16 08:51:33;;;;;;;;;10.25;8.75;;;;;20.97;56.65;101234.13;5074850;28;45331;-77
2022/05/16 08:54:32;;;;;;;;;9.00;8.75;;;;;21.01;56.24;101232.88;5058479;28;45361;-78
2022/05/16 08:57:02;;;;;;;;;10.00;7.00;;;;;20.99;56.33;101230.28;5075345;27;45492;-78
2022/05/16 08:59:32;;;;;;;;;19.00;19.00;;;;;21.02;55.54;101230.03;5072920;27;46063;-80
2022/05/16 09:02:16;;;;;;;;;8.00;8.00;;;;;21.02;55.92;101235.44;5057575;28;45560;-78
2022/05/16 09:04:48;;;;;;;;;11.00;10.50;;;;;21.03;55.60;101228.19;5074355;28;45458;-78
2022/05/16 09:07:41;;;;;;;;;6.50;5.75;;;;;21.08;56.11;101231.31;5055634;28;45491;-78
2022/05/16 09:10:29;;;;;;;;;7.25;7.25;;;;;21.19;55.36;101233.88;5072758;28;45936;-77
2022/05/16 09:13:33;;;;;;;;;8.00;6.25;;;;;21.23;55.55;101240.69;5073283;27;45375;-77
2022/05/16 09:16:56;;;;;;;;;8.75;6.75;;;;;21.26;55.24;101250.38;5013155;28;45543;-77
2022/05/16 09:20:07;;;;;;;;;11.00;6.00;;;;;21.08;55.83;101276.47;4984012;28;45603;-78
2022/05/16 09:23:01;;;;;;;;;5.75;5.75;;;;;21.04;56.03;101268.63;4932492;28;46281;-77
2022/05/16 09:25:38;;;;;;;;;4.00;4.00;;;;;20.99;54.99;101275.47;4933184;28;45433;-77
2022/05/16 09:30:58;;;;;;;;;5.75;4.75;;;;;21.00;57.39;101269.91;4932333;28;45584;-77
2022/05/16 09:33:29;;;;;;;;;7.25;6.25;;;;;21.02;58.18;101272.47;4933885;28;48556;-77
2022/05/16 09:36:00;;;;;;;;;9.50;8.25;;;;;21.05;58.57;101266.78;4934151;28;45382;-78
2022/05/16 09:38:26;;;;;;;;;6.75;5.25;;;;;21.09;58.52;101280.88;4935855;28;45462;-78
2022/05/16 09:41:00;;;;;;;;;10.25;7.75;;;;;21.14;57.82;101284.91;4919681;28;45575;-78
2022/05/16 09:43:31;;;;;;;;;8.00;7.00;;;;;21.15;58.24;101278.47;4929495;28;46209;-79
2022/05/16 09:46:10;;;;;;;;;11.50;9.00;;;;;21.20;58.57;101284.31;4936104;28;45501;-79
2022/05/16 09:48:36;;;;;;;;;8.50;8.50;;;;;21.25;59.08;101294.72;4934061;28;45703;-78
2022/05/16 09:51:05;;;;;;;;;10.00;9.50;;;;;21.28;58.62;101289.88;4940162;28;45441;-77
2022/05/16 09:53:38;;;;;;;;;9.25;7.50;;;;;21.34;59.15;101287.59;4971598;28;45532;-78
2022/05/16 09:56:09;;;;;;;;;9.00;9.00;;;;;21.36;58.97;101285.59;4964311;28;45480;-79
2022/05/16 09:58:46;;;;;;;;;9.00;8.50;;;;;21.45;59.15;101298.31;4988830;28;45714;-79
2022/05/16 10:01:27;;;;;;;;;8.25;8.25;;;;;21.47;58.75;101296.31;5054840;28;45552;-78
2022/05/16 10:03:52;;;;;;;;;8.00;8.00;;;;;21.40;58.31;101284.34;5071810;27;46272;-79
2022/05/16 10:06:33;;;;;;;;;9.00;9.00;;;;;21.51;58.82;101305.03;5073880;27;45294;-78
2022/05/16 10:09:25;;;;;;;;;9.00;9.00;;;;;21.54;57.85;101296.59;5071158;28;45482;-78
2022/05/16 10:11:51;;;;;;;;;8.25;8.25;;;;;21.55;57.29;101304.59;5073012;27;45501;-78
2022/05/16 10:14:17;;;;;;;;;10.25;9.50;;;;;21.59;57.47;101305.16;5072247;28;45366;-78
2022/05/16 10:16:48;;;;;;;;;6.50;6.50;;;;;21.61;57.02;101314.00;5073125;27;45525;-78
2022/05/16 10:19:18;;;;;;;;;7.00;7.00;;;;;21.65;56.08;101310.00;5053628;28;45533;-78
2022/05/16 10:22:03;;;;;;;;;9.50;9.50;;;;;21.65;56.44;101310.84;5072068;27;45503;-78
2022/05/16 10:24:31;;;;;;;;;9.75;9.00;;;;;21.71;55.91;101317.53;5072252;28;46367;-78
2022/05/16 10:27:05;;;;;;;;;9.50;9.50;;;;;21.68;56.21;101309.72;5053424;28;45660;-78
2022/05/16 10:29:34;;;;;;;;;11.25;9.25;;;;;21.86;56.20;101307.97;5071704;27;45493;-79
2022/05/16 10:34:56;;;;;;;;;11.00;11.00;;;;;21.98;55.30;101310.50;5072406;28;45460;-78
2022/05/16 10:37:23;;;;;;;;;10.25;10.00;;;;;21.94;55.87;101304.53;5071562;28;45342;-79
2022/05/16 10:40:01;;;;;;;;;9.75;8.75;;;;;21.99;55.26;101313.09;5072583;28;45501;-78
2022/05/16 10:42:38;;;;;;;;;10.50;9.00;;;;;22.10;55.37;101309.31;5072472;28;45728;-80
2022/05/16 10:45:15;;;;;;;;;8.00;8.00;;;;;22.23;55.69;101325.31;5055552;28;47988;-80
2022/05/16 10:48:01;;;;;;;;;12.75;9.00;;;;;22.31;54.64;101318.13;5072265;28;45416;-77
2022/05/16 10:50:34;;;;;;;;;7.75;7.75;;;;;22.38;54.54;101322.97;5071469;28;45530;-77
2022/05/16 10:53:10;;;;;;;;;7.00;7.00;;;;;22.45;54.61;101321.38;5070317;28;45506;-77
2022/05/16 10:56:18;;;;;;;;;12.00;12.00;;;;;22.50;54.30;101321.78;5071734;28;46168;-78
2022/05/16 10:58:56;;;;;;;;;9.50;8.50;;;;;22.57;54.61;101305.78;5059710;28;46438;-79
2022/05/16 11:01:30;;;;;;;;;10.25;9.75;;;;;22.65;54.20;101312.13;5052574;28;45729;-81
2022/05/16 11:03:58;;;;;;;;;11.00;10.50;;;;;22.76;54.08;101321.94;5070557;28;45561;-79
2022/05/16 11:06:51;;;;;;;;;10.00;10.00;;;;;22.80;53.19;101308.91;5071505;28;46989;-79
2022/05/16 11:09:28;;;;;;;;;13.25;10.25;;;;;22.96;53.49;101319.97;5071548;27;45566;-79
2022/05/16 11:12:04;;;;;;;;;8.75;8.75;;;;;23.13;53.78;101324.59;5075964;27;45443;-79
2022/05/16 11:14:57;;;;;;;;;8.25;8.25;;;;;23.28;53.20;101319.50;5075270;28;45438;-80
2022/05/16 11:17:44;;;;;;;;;8.25;8.25;;;;;23.39;52.72;101308.38;5073688;27;46450;-80
2022/05/16 11:20:19;;;;;;;;;8.00;7.25;;;;;23.44;51.67;101307.06;5057440;28;47088;-80
2022/05/16 11:22:54;;;;;;;;;8.00;8.00;;;;;23.54;52.17;101300.50;5075565;28;45562;-80
2022/05/16 11:25:27;;;;;;;;;11.25;11.00;;;;;23.65;52.43;101301.31;5075586;28;45541;-79
2022/05/16 11:28:03;;;;;;;;;8.00;8.00;;;;;23.73;51.85;101304.94;5074767;27;45427;-79
2022/05/16 11:30:40;;;;;;;;;10.50;8.75;;;;;23.79;50.88;101303.47;5074797;28;45544;-80
2022/05/16 11:33:16;;;;;;;;;7.50;6.50;;;;;23.84;50.58;101317.44;5075914;27;45479;-79
2022/05/16 11:35:45;;;;;;;;;9.75;8.25;;;;;23.85;50.62;101313.72;5075028;27;45447;-81
2022/05/16 11:38:42;;;;;;;;;9.00;9.00;;;;;23.88;51.37;101312.53;5074966;27;45340;-80
2022/05/16 11:41:20;;;;;;;;;9.50;9.50;;;;;23.96;51.91;101309.88;5075081;28;45426;-81
2022/05/16 11:43:48;;;;;;;;;9.50;9.25;;;;;23.99;51.25;101298.69;5072235;28;45346;-81
2022/05/16 11:46:26;;;;;;;;;8.00;8.00;;;;;24.06;49.82;101301.63;5075234;28;45288;-80
2022/05/16 11:48:57;;;;;;;;;8.00;8.00;;;;;24.10;49.67;101282.09;5056649;28;46105;-80
2022/05/16 11:51:39;;;;;;;;;9.50;7.25;;;;;24.19;49.49;101294.69;5075983;28;45323;-81
2022/05/16 11:54:06;;;;;;;;;6.00;6.00;;;;;24.30;49.24;101299.03;5077698;27;45441;-81
2022/05/16 12:02:12;;;;;;;;;7.00;6.00;;;;;24.65;48.48;101294.44;5072291;27;45308;-80